sensor_id;sensor_type;location;lat;lon;timestamp;pressure;altitude;pressure_sealevel;temperature;humidity
68179;BME280;54998;42.656;23.382;2022-07-29T00:00:08;95046.94;;;17.32;73.78
68179;BME280;54998;42.656;23.382;2022-07-29T00:02:34;95041.41;;;17.35;73.54
68179;BME280;54998;42.656;23.382;2022-07-29T00:05:00;95042.81;;;17.23;73.89
68179;BME280;54998;42.656;23.382;2022-07-29T00:07:26;95052.63;;;17.13;74.57
68179;BME280;54998;42.656;23.382;2022-07-29T00:09:51;95056.38;;;17.10;74.60
68179;BME280;54998;42.656;23.382;2022-07-29T00:12:17;95056.91;;;17.06;74.83
68179;BME280;54998;42.656;23.382;2022-07-29T00:14:42;95063.59;;;17.00;75.12
68179;BME280;54998;42.656;23.382;2022-07-29T00:17:08;95062.72;;;17.08;74.82
68179;BME280;54998;42.656;23.382;2022-07-29T00:19:33;95065.53;;;17.21;74.36
68179;BME280;54998;42.656;23.382;2022-07-29T00:22:00;95063.84;;;17.28;74.24
68179;BME280;54998;42.656;23.382;2022-07-29T00:24:25;95063.19;;;17.26;74.11
68179;BME280;54998;42.656;23.382;2022-07-29T00:26:50;95068.06;;;17.29;74.19
68179;BME280;54998;42.656;23.382;2022-07-29T00:29:16;95063.03;;;17.28;74.08
68179;BME280;54998;42.656;23.382;2022-07-29T00:31:41;95063.69;;;17.44;73.43
68179;BME280;54998;42.656;23.382;2022-07-29T00:34:07;95051.63;;;17.52;72.76
68179;BME280;54998;42.656;23.382;2022-07-29T00:36:52;95055.38;;;17.64;72.44
68179;BME280;54998;42.656;23.382;2022-07-29T00:39:17;95055.66;;;17.69;72.40
68179;BME280;54998;42.656;23.382;2022-07-29T00:41:43;95051.44;;;17.68;72.29
68179;BME280;54998;42.656;23.382;2022-07-29T00:44:08;95051.00;;;17.64;72.56
68179;BME280;54998;42.656;23.382;2022-07-29T00:46:34;95051.44;;;17.68;72.26
68179;BME280;54998;42.656;23.382;2022-07-29T00:48:59;95057.91;;;17.72;72.33
68179;BME280;54998;42.656;23.382;2022-07-29T00:51:25;95056.81;;;17.66;72.72
68179;BME280;54998;42.656;23.382;2022-07-29T00:53:51;95054.94;;;17.60;73.13
68179;BME280;54998;42.656;23.382;2022-07-29T00:56:17;95059.22;;;17.38;73.64
68179;BME280;54998;42.656;23.382;2022-07-29T00:58:43;95060.22;;;17.37;73.82
68179;BME280;54998;42.656;23.382;2022-07-29T01:01:10;95061.53;;;17.33;74.03
68179;BME280;54998;42.656;23.382;2022-07-29T01:03:35;95062.16;;;17.35;74.64
68179;BME280;54998;42.656;23.382;2022-07-29T01:06:00;95062.34;;;17.34;75.08
68179;BME280;54998;42.656;23.382;2022-07-29T01:08:26;95057.69;;;17.29;75.38
68179;BME280;54998;42.656;23.382;2022-07-29T01:10:52;95055.78;;;17.23;75.86
68179;BME280;54998;42.656;23.382;2022-07-29T01:13:19;95047.38;;;17.21;76.25
68179;BME280;54998;42.656;23.382;2022-07-29T01:15:59;95042.19;;;17.21;76.16
68179;BME280;54998;42.656;23.382;2022-07-29T01:18:41;95052.28;;;17.16;76.42
68179;BME280;54998;42.656;23.382;2022-07-29T01:21:27;95059.44;;;17.14;76.62
68179;BME280;54998;42.656;23.382;2022-07-29T01:24:14;95051.38;;;17.09;77.19
68179;BME280;54998;42.656;23.382;2022-07-29T01:26:49;95046.28;;;17.15;76.85
68179;BME280;54998;42.656;23.382;2022-07-29T01:29:28;95050.03;;;17.13;76.87
68179;BME280;54998;42.656;23.382;2022-07-29T01:32:08;95047.91;;;17.16;77.17
68179;BME280;54998;42.656;23.382;2022-07-29T01:39:51;95043.84;;;16.99;77.61
68179;BME280;54998;42.656;23.382;2022-07-29T01:42:38;95039.88;;;16.88;78.13
68179;BME280;54998;42.656;23.382;2022-07-29T01:50:36;95035.38;;;16.82;78.77
68179;BME280;54998;42.656;23.382;2022-07-29T01:53:06;95027.94;;;16.79;79.16
68179;BME280;54998;42.656;23.382;2022-07-29T01:55:39;95028.28;;;16.76;78.91
68179;BME280;54998;42.656;23.382;2022-07-29T01:58:06;95032.81;;;16.74;78.85
68179;BME280;54998;42.656;23.382;2022-07-29T02:00:34;95040.25;;;16.77;78.61
68179;BME280;54998;42.656;23.382;2022-07-29T02:03:04;95034.03;;;16.63;78.22
68179;BME280;54998;42.656;23.382;2022-07-29T02:05:32;95016.19;;;16.68;77.82
68179;BME280;54998;42.656;23.382;2022-07-29T02:08:00;95018.72;;;16.76;77.03
68179;BME280;54998;42.656;23.382;2022-07-29T02:10:29;95016.72;;;16.87;76.60
68179;BME280;54998;42.656;23.382;2022-07-29T02:12:57;95024.97;;;16.90;76.42
68179;BME280;54998;42.656;23.382;2022-07-29T02:15:25;95018.28;;;16.96;76.08
68179;BME280;54998;42.656;23.382;2022-07-29T02:17:58;95022.22;;;17.07;75.79
68179;BME280;54998;42.656;23.382;2022-07-29T02:20:26;95013.84;;;17.04;75.09
68179;BME280;54998;42.656;23.382;2022-07-29T02:22:53;95011.38;;;16.88;75.35
68179;BME280;54998;42.656;23.382;2022-07-29T02:25:21;95025.13;;;16.89;75.61
68179;BME280;54998;42.656;23.382;2022-07-29T02:27:49;95018.88;;;16.83;76.10
68179;BME280;54998;42.656;23.382;2022-07-29T02:30:16;95024.31;;;16.88;75.85
68179;BME280;54998;42.656;23.382;2022-07-29T02:32:43;95021.66;;;16.73;76.23
68179;BME280;54998;42.656;23.382;2022-07-29T02:35:13;95020.28;;;16.62;76.85
68179;BME280;54998;42.656;23.382;2022-07-29T02:37:39;95022.03;;;16.70;76.90
68179;BME280;54998;42.656;23.382;2022-07-29T02:40:09;95011.94;;;16.98;75.14
68179;BME280;54998;42.656;23.382;2022-07-29T02:42:37;95015.06;;;16.94;75.41
68179;BME280;54998;42.656;23.382;2022-07-29T02:45:05;95001.28;;;16.93;74.92
68179;BME280;54998;42.656;23.382;2022-07-29T02:50:06;95003.59;;;16.88;75.62
68179;BME280;54998;42.656;23.382;2022-07-29T02:52:43;94996.19;;;16.85;75.80
68179;BME280;54998;42.656;23.382;2022-07-29T02:55:16;95004.44;;;16.80;76.04
68179;BME280;54998;42.656;23.382;2022-07-29T02:57:47;95003.41;;;16.67;76.61
68179;BME280;54998;42.656;23.382;2022-07-29T03:00:14;95001.97;;;16.64;77.28
68179;BME280;54998;42.656;23.382;2022-07-29T03:02:44;95012.72;;;16.76;76.88
68179;BME280;54998;42.656;23.382;2022-07-29T03:05:15;95010.97;;;16.76;77.02
68179;BME280;54998;42.656;23.382;2022-07-29T03:07:43;95009.34;;;16.75;77.20
68179;BME280;54998;42.656;23.382;2022-07-29T03:10:11;95000.72;;;16.83;77.49
68179;BME280;54998;42.656;23.382;2022-07-29T03:12:37;95001.47;;;16.92;77.43
68179;BME280;54998;42.656;23.382;2022-07-29T03:52:09;95018.91;;;16.75;80.13
68179;BME280;54998;42.656;23.382;2022-07-29T03:54:34;95018.09;;;16.74;80.13
68179;BME280;54998;42.656;23.382;2022-07-29T03:57:03;95020.22;;;16.71;80.34
68179;BME280;54998;42.656;23.382;2022-07-29T03:59:32;95028.16;;;16.69;79.91
68179;BME280;54998;42.656;23.382;2022-07-29T04:02:01;95027.00;;;16.72;79.47
68179;BME280;54998;42.656;23.382;2022-07-29T04:04:27;95026.97;;;16.80;78.97
68179;BME280;54998;42.656;23.382;2022-07-29T04:06:53;95030.31;;;16.89;78.66
68179;BME280;54998;42.656;23.382;2022-07-29T04:09:18;95023.91;;;16.99;77.99
68179;BME280;54998;42.656;23.382;2022-07-29T04:11:44;95026.44;;;17.08;77.58
68179;BME280;54998;42.656;23.382;2022-07-29T04:14:10;95028.59;;;17.19;76.97
68179;BME280;54998;42.656;23.382;2022-07-29T04:16:36;95024.84;;;17.21;76.91
68179;BME280;54998;42.656;23.382;2022-07-29T04:19:01;95023.59;;;17.32;75.52
68179;BME280;54998;42.656;23.382;2022-07-29T04:21:27;95023.59;;;17.47;75.00
68179;BME280;54998;42.656;23.382;2022-07-29T04:23:52;95018.16;;;17.57;75.22
68179;BME280;54998;42.656;23.382;2022-07-29T04:26:19;95026.31;;;17.69;74.78
68179;BME280;54998;42.656;23.382;2022-07-29T04:28:44;95027.56;;;17.73;73.72
68179;BME280;54998;42.656;23.382;2022-07-29T04:31:11;95021.81;;;17.77;73.19
68179;BME280;54998;42.656;23.382;2022-07-29T04:33:37;95017.63;;;17.76;74.02
68179;BME280;54998;42.656;23.382;2022-07-29T04:36:02;95025.31;;;17.84;72.68
68179;BME280;54998;42.656;23.382;2022-07-29T04:38:28;95034.00;;;17.77;73.14
68179;BME280;54998;42.656;23.382;2022-07-29T04:40:53;95028.44;;;17.80;72.92
68179;BME280;54998;42.656;23.382;2022-07-29T04:43:19;95034.97;;;17.76;73.24
68179;BME280;54998;42.656;23.382;2022-07-29T04:45:44;95032.91;;;17.71;73.79
68179;BME280;54998;42.656;23.382;2022-07-29T04:48:10;95038.38;;;17.76;73.01
68179;BME280;54998;42.656;23.382;2022-07-29T04:50:38;95043.22;;;17.79;73.53
68179;BME280;54998;42.656;23.382;2022-07-29T04:53:03;95037.50;;;17.99;72.41
68179;BME280;54998;42.656;23.382;2022-07-29T05:10:54;95046.03;;;19.08;69.05
68179;BME280;54998;42.656;23.382;2022-07-29T05:13:19;95045.22;;;19.08;69.07
68179;BME280;54998;42.656;23.382;2022-07-29T05:15:45;95052.34;;;19.27;67.97
68179;BME280;54998;42.656;23.382;2022-07-29T05:18:10;95045.31;;;19.49;67.44
68179;BME280;54998;42.656;23.382;2022-07-29T05:20:35;95051.41;;;19.63;65.17
68179;BME280;54998;42.656;23.382;2022-07-29T05:23:02;95060.25;;;19.69;64.81
68179;BME280;54998;42.656;23.382;2022-07-29T05:25:28;95056.75;;;19.83;64.10
68179;BME280;54998;42.656;23.382;2022-07-29T05:27:54;95055.19;;;19.89;63.91
68179;BME280;54998;42.656;23.382;2022-07-29T05:30:20;95046.66;;;20.08;63.20
68179;BME280;54998;42.656;23.382;2022-07-29T05:32:46;95051.53;;;21.06;61.11
68179;BME280;54998;42.656;23.382;2022-07-29T05:35:13;95047.44;;;22.81;55.64
68179;BME280;54998;42.656;23.382;2022-07-29T05:37:39;95041.03;;;24.63;50.17
68179;BME280;54998;42.656;23.382;2022-07-29T05:40:06;95042.53;;;26.07;45.99
68179;BME280;54998;42.656;23.382;2022-07-29T05:42:32;95041.31;;;26.09;45.68
68179;BME280;54998;42.656;23.382;2022-07-29T05:44:57;95040.31;;;27.47;42.98
68179;BME280;54998;42.656;23.382;2022-07-29T05:47:23;95039.69;;;28.18;40.71
68179;BME280;54998;42.656;23.382;2022-07-29T05:49:49;95049.63;;;28.82;38.88
68179;BME280;54998;42.656;23.382;2022-07-29T05:52:15;95053.63;;;29.49;37.58
68179;BME280;54998;42.656;23.382;2022-07-29T05:54:41;95048.03;;;28.54;38.70
68179;BME280;54998;42.656;23.382;2022-07-29T05:57:06;95047.66;;;28.67;38.82
68179;BME280;54998;42.656;23.382;2022-07-29T05:59:36;95050.38;;;28.77;38.68
68179;BME280;54998;42.656;23.382;2022-07-29T06:02:01;95055.47;;;29.11;37.95
68179;BME280;54998;42.656;23.382;2022-07-29T06:04:27;95053.53;;;28.74;38.86
68179;BME280;54998;42.656;23.382;2022-07-29T06:06:52;95058.06;;;28.79;38.95
68179;BME280;54998;42.656;23.382;2022-07-29T06:09:18;95046.31;;;29.61;37.68
68179;BME280;54998;42.656;23.382;2022-07-29T06:11:43;95055.88;;;30.94;35.79
68179;BME280;54998;42.656;23.382;2022-07-29T06:14:09;95050.97;;;30.44;35.73
68179;BME280;54998;42.656;23.382;2022-07-29T06:16:34;95054.97;;;30.47;35.98
68179;BME280;54998;42.656;23.382;2022-07-29T06:19:00;95054.28;;;30.14;36.90
68179;BME280;54998;42.656;23.382;2022-07-29T06:21:25;95055.22;;;29.13;38.41
68179;BME280;54998;42.656;23.382;2022-07-29T06:23:50;95059.88;;;29.33;38.34
68179;BME280;54998;42.656;23.382;2022-07-29T06:26:16;95053.50;;;30.14;37.30
68179;BME280;54998;42.656;23.382;2022-07-29T06:28:41;95055.38;;;31.48;35.03
68179;BME280;54998;42.656;23.382;2022-07-29T06:31:07;95054.09;;;32.41;32.96
68179;BME280;54998;42.656;23.382;2022-07-29T06:33:32;95052.72;;;31.32;35.69
68179;BME280;54998;42.656;23.382;2022-07-29T06:35:58;95057.50;;;31.51;35.00
68179;BME280;54998;42.656;23.382;2022-07-29T06:38:24;95049.28;;;31.37;34.70
68179;BME280;54998;42.656;23.382;2022-07-29T06:40:50;95049.00;;;31.03;35.35
68179;BME280;54998;42.656;23.382;2022-07-29T06:43:34;95049.34;;;30.28;36.10
68179;BME280;54998;42.656;23.382;2022-07-29T06:46:04;95044.78;;;30.18;36.52
68179;BME280;54998;42.656;23.382;2022-07-29T06:48:31;95043.91;;;30.70;36.49
68179;BME280;54998;42.656;23.382;2022-07-29T06:50:56;95047.88;;;32.01;33.43
68179;BME280;54998;42.656;23.382;2022-07-29T06:53:22;95045.78;;;31.72;33.50
68179;BME280;54998;42.656;23.382;2022-07-29T06:55:47;95036.28;;;31.05;34.88
68179;BME280;54998;42.656;23.382;2022-07-29T06:58:13;95045.78;;;30.80;35.11
68179;BME280;54998;42.656;23.382;2022-07-29T07:00:41;95039.06;;;30.47;35.55
68179;BME280;54998;42.656;23.382;2022-07-29T07:03:07;95037.88;;;31.16;34.38
68179;BME280;54998;42.656;23.382;2022-07-29T07:05:32;95028.84;;;31.38;33.74
68179;BME280;54998;42.656;23.382;2022-07-29T07:07:58;95025.94;;;31.44;33.43
68179;BME280;54998;42.656;23.382;2022-07-29T07:10:23;95029.34;;;32.95;30.98
68179;BME280;54998;42.656;23.382;2022-07-29T07:12:49;95046.28;;;33.10;31.05
68179;BME280;54998;42.656;23.382;2022-07-29T07:15:14;95035.06;;;32.24;31.66
68179;BME280;54998;42.656;23.382;2022-07-29T07:17:40;95033.00;;;32.00;31.91
68179;BME280;54998;42.656;23.382;2022-07-29T07:20:05;95031.66;;;33.42;29.71
68179;BME280;54998;42.656;23.382;2022-07-29T07:22:31;95040.59;;;32.82;30.29
68179;BME280;54998;42.656;23.382;2022-07-29T07:24:56;95036.25;;;32.97;30.78
68179;BME280;54998;42.656;23.382;2022-07-29T07:27:22;95032.41;;;32.24;31.11
68179;BME280;54998;42.656;23.382;2022-07-29T07:29:47;95032.00;;;32.51;30.55
68179;BME280;54998;42.656;23.382;2022-07-29T07:32:13;95031.09;;;32.16;31.22
68179;BME280;54998;42.656;23.382;2022-07-29T07:34:41;95027.81;;;31.08;32.78
68179;BME280;54998;42.656;23.382;2022-07-29T07:37:07;95025.63;;;30.69;33.61
68179;BME280;54998;42.656;23.382;2022-07-29T07:39:32;95026.97;;;30.03;34.37
68179;BME280;54998;42.656;23.382;2022-07-29T07:41:57;95020.03;;;30.45;33.65
68179;BME280;54998;42.656;23.382;2022-07-29T07:44:23;95015.50;;;32.04;32.30
68179;BME280;54998;42.656;23.382;2022-07-29T07:46:48;95014.19;;;32.51;30.25
68179;BME280;54998;42.656;23.382;2022-07-29T07:49:13;95028.72;;;32.09;30.86
68179;BME280;54998;42.656;23.382;2022-07-29T07:51:39;95023.97;;;31.96;31.31
68179;BME280;54998;42.656;23.382;2022-07-29T07:54:04;95018.63;;;33.11;29.62
68179;BME280;54998;42.656;23.382;2022-07-29T07:56:30;95025.41;;;31.22;31.58
68179;BME280;54998;42.656;23.382;2022-07-29T07:58:55;95021.13;;;32.52;29.63
68179;BME280;54998;42.656;23.382;2022-07-29T08:01:20;95018.50;;;33.26;28.98
68179;BME280;54998;42.656;23.382;2022-07-29T08:03:49;95026.94;;;32.60;29.35
68179;BME280;54998;42.656;23.382;2022-07-29T08:06:15;95021.47;;;32.30;29.86
68179;BME280;54998;42.656;23.382;2022-07-29T08:08:40;95023.84;;;31.51;31.00
68179;BME280;54998;42.656;23.382;2022-07-29T08:11:05;95022.19;;;32.46;30.00
68179;BME280;54998;42.656;23.382;2022-07-29T08:13:31;95024.03;;;31.81;30.43
68179;BME280;54998;42.656;23.382;2022-07-29T08:15:57;95010.78;;;32.46;29.72
68179;BME280;54998;42.656;23.382;2022-07-29T08:18:27;95008.75;;;33.17;28.37
68179;BME280;54998;42.656;23.382;2022-07-29T08:20:53;95006.88;;;35.18;25.84
68179;BME280;54998;42.656;23.382;2022-07-29T08:23:19;95021.72;;;35.38;24.61
68179;BME280;54998;42.656;23.382;2022-07-29T08:25:44;95011.63;;;35.22;24.73
68179;BME280;54998;42.656;23.382;2022-07-29T08:28:10;95001.38;;;36.53;23.23
68179;BME280;54998;42.656;23.382;2022-07-29T08:30:35;95005.50;;;35.21;24.36
68179;BME280;54998;42.656;23.382;2022-07-29T08:33:01;94996.56;;;35.45;24.53
68179;BME280;54998;42.656;23.382;2022-07-29T08:35:27;95001.25;;;35.01;24.04
68179;BME280;54998;42.656;23.382;2022-07-29T08:37:53;95005.75;;;35.52;23.58
68179;BME280;54998;42.656;23.382;2022-07-29T08:40:19;94995.66;;;34.27;25.00
68179;BME280;54998;42.656;23.382;2022-07-29T08:42:46;94998.50;;;35.25;24.26
68179;BME280;54998;42.656;23.382;2022-07-29T08:45:12;95001.63;;;33.70;25.25
68179;BME280;54998;42.656;23.382;2022-07-29T08:55:16;94986.16;;;37.13;21.79
68179;BME280;54998;42.656;23.382;2022-07-29T08:57:43;94990.41;;;37.14;21.16
68179;BME280;54998;42.656;23.382;2022-07-29T09:00:09;94988.28;;;37.25;21.75
68179;BME280;54998;42.656;23.382;2022-07-29T09:02:40;94981.75;;;37.39;21.46
68179;BME280;54998;42.656;23.382;2022-07-29T09:05:07;94992.72;;;36.06;22.13
68179;BME280;54998;42.656;23.382;2022-07-29T09:07:32;94992.16;;;36.23;22.22
68179;BME280;54998;42.656;23.382;2022-07-29T09:09:59;94990.81;;;37.30;21.26
68179;BME280;54998;42.656;23.382;2022-07-29T09:12:25;94978.97;;;37.53;21.13
68179;BME280;54998;42.656;23.382;2022-07-29T09:14:51;94987.53;;;34.75;23.83
68179;BME280;54998;42.656;23.382;2022-07-29T09:17:16;94971.97;;;32.89;26.71
68179;BME280;54998;42.656;23.382;2022-07-29T09:19:43;94996.69;;;31.80;28.05
68179;BME280;54998;42.656;23.382;2022-07-29T09:53:11;94949.78;;;36.67;22.65
68179;BME280;54998;42.656;23.382;2022-07-29T10:13:48;94936.66;;;34.90;24.89
68179;BME280;54998;42.656;23.382;2022-07-29T10:16:15;94938.03;;;34.88;24.86
68179;BME280;54998;42.656;23.382;2022-07-29T10:18:42;94938.78;;;32.87;26.99
68179;BME280;54998;42.656;23.382;2022-07-29T10:21:09;94927.28;;;32.18;28.42
68179;BME280;54998;42.656;23.382;2022-07-29T10:23:36;94917.44;;;31.63;28.57
68179;BME280;54998;42.656;23.382;2022-07-29T10:26:03;94924.44;;;31.18;28.67
68179;BME280;54998;42.656;23.382;2022-07-29T10:28:32;94922.94;;;31.82;27.69
68179;BME280;54998;42.656;23.382;2022-07-29T10:31:05;94912.13;;;33.99;25.10
68179;BME280;54998;42.656;23.382;2022-07-29T10:36:32;94914.38;;;36.61;22.27
68179;BME280;54998;42.656;23.382;2022-07-29T10:41:59;94906.47;;;36.78;22.18
68179;BME280;54998;42.656;23.382;2022-07-29T10:44:27;94897.00;;;36.13;21.46
68179;BME280;54998;42.656;23.382;2022-07-29T10:46:54;94905.66;;;36.78;21.71
68179;BME280;54998;42.656;23.382;2022-07-29T10:49:24;94900.81;;;36.80;22.48
68179;BME280;54998;42.656;23.382;2022-07-29T10:52:08;94899.41;;;36.37;21.86
68179;BME280;54998;42.656;23.382;2022-07-29T10:59:38;94884.44;;;36.14;22.60
68179;BME280;54998;42.656;23.382;2022-07-29T11:15:21;94873.72;;;37.27;20.54
68179;BME280;54998;42.656;23.382;2022-07-29T11:20:45;94865.81;;;38.92;19.39
68179;BME280;54998;42.656;23.382;2022-07-29T11:29:02;94859.72;;;37.87;20.71
68179;BME280;54998;42.656;23.382;2022-07-29T11:34:25;94856.09;;;37.34;20.58
68179;BME280;54998;42.656;23.382;2022-07-29T11:47:25;94847.28;;;35.90;21.93
68179;BME280;54998;42.656;23.382;2022-07-29T11:49:51;94846.88;;;35.96;22.08
68179;BME280;54998;42.656;23.382;2022-07-29T11:52:18;94844.63;;;35.90;21.96
68179;BME280;54998;42.656;23.382;2022-07-29T11:54:44;94834.59;;;36.32;21.10
68179;BME280;54998;42.656;23.382;2022-07-29T11:57:12;94838.53;;;35.34;22.32
68179;BME280;54998;42.656;23.382;2022-07-29T11:59:42;94850.69;;;35.26;22.54
68179;BME280;54998;42.656;23.382;2022-07-29T12:02:08;94848.34;;;34.78;24.03
68179;BME280;54998;42.656;23.382;2022-07-29T12:04:47;94850.88;;;34.17;24.56
68179;BME280;54998;42.656;23.382;2022-07-29T12:07:13;94841.63;;;33.29;25.49
68179;BME280;54998;42.656;23.382;2022-07-29T12:09:38;94841.16;;;33.27;25.80
68179;BME280;54998;42.656;23.382;2022-07-29T12:12:04;94839.09;;;33.86;24.87
68179;BME280;54998;42.656;23.382;2022-07-29T12:14:31;94846.78;;;33.68;25.02
68179;BME280;54998;42.656;23.382;2022-07-29T12:16:57;94839.69;;;33.59;25.13
68179;BME280;54998;42.656;23.382;2022-07-29T12:19:23;94842.19;;;33.26;25.11
68179;BME280;54998;42.656;23.382;2022-07-29T12:21:49;94834.78;;;32.99;25.68
68179;BME280;54998;42.656;23.382;2022-07-29T12:24:15;94847.94;;;32.56;26.31
68179;BME280;54998;42.656;23.382;2022-07-29T12:26:54;94838.91;;;32.17;26.71
68179;BME280;54998;42.656;23.382;2022-07-29T12:29:20;94839.94;;;32.21;25.66
68179;BME280;54998;42.656;23.382;2022-07-29T12:31:45;94830.06;;;32.27;26.44
68179;BME280;54998;42.656;23.382;2022-07-29T12:34:13;94839.13;;;31.76;27.20
68179;BME280;54998;42.656;23.382;2022-07-29T12:36:40;94827.00;;;31.65;26.97
68179;BME280;54998;42.656;23.382;2022-07-29T12:39:07;94825.94;;;31.61;27.56
68179;BME280;54998;42.656;23.382;2022-07-29T12:41:34;94834.13;;;31.69;26.89
68179;BME280;54998;42.656;23.382;2022-07-29T12:44:00;94823.16;;;31.86;26.68
68179;BME280;54998;42.656;23.382;2022-07-29T12:46:25;94826.03;;;31.90;27.24
68179;BME280;54998;42.656;23.382;2022-07-29T12:48:52;94818.81;;;32.06;27.22
68179;BME280;54998;42.656;23.382;2022-07-29T12:51:31;94817.06;;;31.86;26.86
68179;BME280;54998;42.656;23.382;2022-07-29T12:54:12;94817.72;;;31.62;27.17
68179;BME280;54998;42.656;23.382;2022-07-29T12:56:42;94812.44;;;31.57;27.46
68179;BME280;54998;42.656;23.382;2022-07-29T13:01:38;94809.06;;;31.36;27.91
68179;BME280;54998;42.656;23.382;2022-07-29T13:04:03;94812.16;;;31.59;28.05
68179;BME280;54998;42.656;23.382;2022-07-29T13:06:39;94801.97;;;31.21;28.04
68179;BME280;54998;42.656;23.382;2022-07-29T13:13:55;94795.00;;;31.36;28.71
68179;BME280;54998;42.656;23.382;2022-07-29T13:16:20;94796.44;;;31.72;28.14
68179;BME280;54998;42.656;23.382;2022-07-29T13:18:46;94789.44;;;31.37;28.83
68179;BME280;54998;42.656;23.382;2022-07-29T13:21:12;94793.69;;;31.43;28.30
68179;BME280;54998;42.656;23.382;2022-07-29T13:23:38;94802.69;;;31.37;28.55
68179;BME280;54998;42.656;23.382;2022-07-29T13:26:07;94796.88;;;31.35;28.51
68179;BME280;54998;42.656;23.382;2022-07-29T13:28:33;94785.31;;;31.10;28.47
68179;BME280;54998;42.656;23.382;2022-07-29T13:30:59;94801.47;;;31.09;29.25
68179;BME280;54998;42.656;23.382;2022-07-29T13:33:25;94786.69;;;30.98;28.59
68179;BME280;54998;42.656;23.382;2022-07-29T13:35:50;94778.75;;;30.82;29.32
68179;BME280;54998;42.656;23.382;2022-07-29T13:38:15;94780.09;;;30.80;28.87
68179;BME280;54998;42.656;23.382;2022-07-29T13:40:42;94777.16;;;30.91;29.93
68179;BME280;54998;42.656;23.382;2022-07-29T13:43:11;94773.41;;;31.03;29.37
68179;BME280;54998;42.656;23.382;2022-07-29T13:45:36;94771.53;;;31.03;29.16
68179;BME280;54998;42.656;23.382;2022-07-29T13:48:02;94782.50;;;30.66;29.50
68179;BME280;54998;42.656;23.382;2022-07-29T13:50:28;94777.22;;;30.40;29.65
68179;BME280;54998;42.656;23.382;2022-07-29T13:52:53;94779.09;;;30.29;29.93
68179;BME280;54998;42.656;23.382;2022-07-29T13:55:19;94777.50;;;30.39;30.00
68179;BME280;54998;42.656;23.382;2022-07-29T13:57:45;94778.84;;;30.41;30.05
68179;BME280;54998;42.656;23.382;2022-07-29T14:00:12;94785.16;;;30.20;30.41
68179;BME280;54998;42.656;23.382;2022-07-29T14:02:38;94775.38;;;30.05;30.02
68179;BME280;54998;42.656;23.382;2022-07-29T14:05:05;94774.31;;;30.06;30.08
68179;BME280;54998;42.656;23.382;2022-07-29T14:07:31;94785.69;;;30.06;30.93
68179;BME280;54998;42.656;23.382;2022-07-29T14:09:56;94785.44;;;29.98;30.11
68179;BME280;54998;42.656;23.382;2022-07-29T14:12:22;94782.50;;;29.89;30.01
68179;BME280;54998;42.656;23.382;2022-07-29T15:00:09;94779.22;;;29.51;29.92
68179;BME280;54998;42.656;23.382;2022-07-29T15:02:35;94774.19;;;29.44;30.03
68179;BME280;54998;42.656;23.382;2022-07-29T15:05:01;94771.81;;;29.48;29.69
68179;BME280;54998;42.656;23.382;2022-07-29T15:07:27;94773.94;;;29.51;30.62
68179;BME280;54998;42.656;23.382;2022-07-29T15:09:52;94775.34;;;29.69;29.80
68179;BME280;54998;42.656;23.382;2022-07-29T15:12:18;94774.50;;;29.68;29.83
68179;BME280;54998;42.656;23.382;2022-07-29T15:14:43;94757.03;;;29.57;29.72
68179;BME280;54998;42.656;23.382;2022-07-29T15:17:09;94767.63;;;29.52;30.31
68179;BME280;54998;42.656;23.382;2022-07-29T15:19:35;94761.28;;;29.58;30.30
68179;BME280;54998;42.656;23.382;2022-07-29T15:22:01;94765.22;;;29.56;29.60
68179;BME280;54998;42.656;23.382;2022-07-29T15:24:26;94759.94;;;29.45;29.81
68179;BME280;54998;42.656;23.382;2022-07-29T15:26:52;94760.94;;;29.34;30.34
68179;BME280;54998;42.656;23.382;2022-07-29T15:29:17;94760.16;;;29.34;29.83
68179;BME280;54998;42.656;23.382;2022-07-29T15:31:43;94758.03;;;29.36;29.80
68179;BME280;54998;42.656;23.382;2022-07-29T15:34:08;94754.88;;;29.34;30.27
68179;BME280;54998;42.656;23.382;2022-07-29T15:36:34;94768.06;;;29.23;30.47
68179;BME280;54998;42.656;23.382;2022-07-29T15:38:59;94765.91;;;29.15;30.76
68179;BME280;54998;42.656;23.382;2022-07-29T15:41:25;94753.97;;;29.07;30.67
68179;BME280;54998;42.656;23.382;2022-07-29T16:14:16;94760.75;;;28.45;32.54
68179;BME280;54998;42.656;23.382;2022-07-29T16:16:41;94760.72;;;28.40;32.73
68179;BME280;54998;42.656;23.382;2022-07-29T16:19:07;94770.66;;;28.28;32.56
68179;BME280;54998;42.656;23.382;2022-07-29T16:21:34;94761.56;;;28.09;33.73
68179;BME280;54998;42.656;23.382;2022-07-29T16:24:01;94768.38;;;28.04;33.65
68179;BME280;54998;42.656;23.382;2022-07-29T16:26:27;94768.03;;;27.96;34.17
68179;BME280;54998;42.656;23.382;2022-07-29T16:28:52;94773.03;;;27.97;33.68
68179;BME280;54998;42.656;23.382;2022-07-29T16:31:18;94764.88;;;27.94;34.21
68179;BME280;54998;42.656;23.382;2022-07-29T16:33:50;94770.75;;;27.79;34.79
68179;BME280;54998;42.656;23.382;2022-07-29T16:36:16;94768.16;;;27.84;34.31
68179;BME280;54998;42.656;23.382;2022-07-29T16:38:42;94777.13;;;27.83;34.75
68179;BME280;54998;42.656;23.382;2022-07-29T16:41:07;94783.63;;;27.75;34.51
68179;BME280;54998;42.656;23.382;2022-07-29T16:43:33;94787.03;;;27.71;34.35
68179;BME280;54998;42.656;23.382;2022-07-29T16:45:58;94790.81;;;27.53;34.85
68179;BME280;54998;42.656;23.382;2022-07-29T16:48:24;94776.53;;;27.49;34.34
68179;BME280;54998;42.656;23.382;2022-07-29T16:50:49;94775.38;;;27.39;34.67
68179;BME280;54998;42.656;23.382;2022-07-29T16:53:15;94774.75;;;27.32;35.21
68179;BME280;54998;42.656;23.382;2022-07-29T16:55:40;94778.66;;;27.24;35.26
68179;BME280;54998;42.656;23.382;2022-07-29T16:58:06;94777.03;;;27.23;35.51
68179;BME280;54998;42.656;23.382;2022-07-29T17:00:31;94775.91;;;27.19;35.39